Time;durP1;ratioP1;P1;durP2;ratioP2;P2;SDS_P1;SDS_P2;PMS_P1;PMS_P2;Temp;Humidity;BMP_temperature;BMP_pressure;BME280_temperature;BME280_humidity;BME280_pressure;Samples;Min_cycle;Max_cycle;Signal;HPM_P1;HPM_P2
2021/09/19 00:00:26;;;;;;;8.32;6.85;;;12.60;99.90;;;;;;4997241;28;20058;-84
2021/09/19 00:02:53;;;;;;;6.00;5.50;;;12.60;99.90;;;;;;4997274;28;20407;-85
2021/09/19 00:05:20;;;;;;;8.45;6.65;;;12.50;99.90;;;;;;4997031;28;20478;-85
2021/09/19 00:07:46;;;;;;;8.98;6.75;;;12.50;99.90;;;;;;4996979;28;20069;-84
2021/09/19 00:10:15;;;;;;;7.63;6.93;;;12.50;99.90;;;;;;5014262;28;20422;-85
2021/09/19 00:12:43;;;;;;;8.30;6.80;;;12.50;99.90;;;;;;4996822;28;20045;-84
2021/09/19 00:15:15;;;;;;;7.53;6.43;;;12.60;99.90;;;;;;4996899;28;20081;-85
2021/09/19 00:17:42;;;;;;;7.18;6.47;;;12.60;99.90;;;;;;5014261;28;20046;-85
2021/09/19 00:20:10;;;;;;;6.95;5.82;;;12.60;99.90;;;;;;4997359;28;20054;-85
2021/09/19 00:22:37;;;;;;;7.78;5.82;;;12.60;99.90;;;;;;5008022;28;20036;-85
2021/09/19 00:25:06;;;;;;;5.95;5.45;;;12.60;99.90;;;;;;5006008;28;20132;-85
2021/09/19 00:27:33;;;;;;;5.75;5.25;;;12.60;99.90;;;;;;5014049;28;20042;-85
2021/09/19 00:30:00;;;;;;;5.75;5.25;;;12.70;99.90;;;;;;5013618;28;20050;-85
2021/09/19 00:32:27;;;;;;;6.00;5.50;;;12.70;99.90;;;;;;5013953;28;20052;-85
2021/09/19 00:34:54;;;;;;;6.60;6.00;;;12.70;99.90;;;;;;4996613;28;20042;-85
2021/09/19 00:37:21;;;;;;;7.57;6.13;;;12.70;99.90;;;;;;4996592;28;20124;-84
2021/09/19 00:39:48;;;;;;;6.40;5.70;;;12.60;99.90;;;;;;5013740;28;20493;-85
2021/09/19 00:42:15;;;;;;;7.68;5.82;;;12.60;99.90;;;;;;5013685;28;20132;-85
2021/09/19 00:44:42;;;;;;;5.43;4.97;;;12.60;99.90;;;;;;4996127;28;20046;-85
2021/09/19 00:47:08;;;;;;;5.97;5.45;;;12.60;99.90;;;;;;5013517;28;20061;-85
2021/09/19 00:49:35;;;;;;;5.50;4.93;;;12.60;99.90;;;;;;4996515;28;20053;-85
2021/09/19 00:52:03;;;;;;;5.93;5.32;;;12.70;99.90;;;;;;4996253;28;20521;-85
2021/09/19 00:54:39;;;;;;;5.05;4.72;;;12.70;99.90;;;;;;5013548;28;20581;-85
2021/09/19 00:57:07;;;;;;;5.20;4.70;;;12.70;99.90;;;;;;4996026;28;20042;-85
2021/09/19 00:59:37;;;;;;;5.43;4.32;;;12.60;99.90;;;;;;4996446;28;20046;-85
2021/09/19 01:02:04;;;;;;;6.35;4.82;;;12.70;99.90;;;;;;4996178;28;20049;-85
2021/09/19 01:04:31;;;;;;;9.02;5.85;;;12.70;99.90;;;;;;4996231;28;20492;-85
2021/09/19 01:06:58;;;;;;;6.18;4.68;;;12.60;99.90;;;;;;4995787;28;20068;-85
2021/09/19 01:09:25;;;;;;;4.82;4.45;;;12.60;99.90;;;;;;4995946;28;20050;-85
2021/09/19 01:11:52;;;;;;;5.00;4.57;;;12.70;99.90;;;;;;4996177;28;20048;-84
2021/09/19 01:14:22;;;;;;;5.05;4.63;;;12.70;99.90;;;;;;4996019;28;20140;-85
2021/09/19 01:16:50;;;;;;;4.88;4.00;;;12.70;99.90;;;;;;5013416;28;20245;-85
2021/09/19 01:19:21;;;;;;;7.28;4.35;;;12.80;99.90;;;;;;4995904;28;20077;-85
2021/09/19 01:21:48;;;;;;;4.47;4.03;;;12.80;99.90;;;;;;4996018;28;20494;-84
2021/09/19 01:24:15;;;;;;;6.03;3.65;;;12.80;99.90;;;;;;5013074;28;20073;-85
2021/09/19 01:26:42;;;;;;;4.35;3.72;;;12.90;99.90;;;;;;5013255;28;20479;-84
2021/09/19 01:29:09;;;;;;;4.47;3.50;;;12.90;99.90;;;;;;5013113;28;20096;-84
2021/09/19 01:31:38;;;;;;;4.90;3.58;;;12.90;99.90;;;;;;4995825;28;20412;-84
2021/09/19 01:34:05;;;;;;;3.50;3.30;;;12.90;99.90;;;;;;5013107;28;20076;-84
2021/09/19 01:36:36;;;;;;;3.63;3.42;;;12.90;99.90;;;;;;4995603;28;20060;-85
2021/09/19 01:39:05;;;;;;;3.88;3.65;;;12.90;99.90;;;;;;4996059;28;20057;-85
2021/09/19 01:41:32;;;;;;;5.15;3.80;;;13.00;99.90;;;;;;5025840;28;20045;-85
2021/09/19 01:43:58;;;;;;;3.65;3.42;;;12.90;99.90;;;;;;5009728;28;20149;-85
2021/09/19 01:46:25;;;;;;;3.33;3.13;;;12.80;99.90;;;;;;4999860;28;20054;-85
2021/09/19 01:48:52;;;;;;;5.38;3.03;;;12.80;99.90;;;;;;4999806;28;20096;-85
2021/09/19 01:51:19;;;;;;;3.83;3.35;;;12.80;99.90;;;;;;4999429;28;20054;-85
2021/09/19 01:53:48;;;;;;;3.75;3.55;;;12.80;99.90;;;;;;4999704;28;20053;-85
2021/09/19 01:56:15;;;;;;;5.25;4.15;;;12.90;99.90;;;;;;4999406;28;20056;-85
2021/09/19 01:58:44;;;;;;;4.05;3.75;;;12.90;99.90;;;;;;5016851;28;20419;-85
2021/09/19 02:01:12;;;;;;;4.72;3.75;;;12.90;99.90;;;;;;5016331;28;20052;-85
2021/09/19 02:03:40;;;;;;;3.75;3.42;;;12.90;99.90;;;;;;5016580;28;20050;-85
2021/09/19 02:06:09;;;;;;;4.32;4.00;;;12.90;99.90;;;;;;5016538;28;20057;-85
2021/09/19 02:08:36;;;;;;;4.32;4.03;;;12.90;99.90;;;;;;4999059;28;20054;-85
2021/09/19 02:11:08;;;;;;;9.30;4.47;;;12.90;99.90;;;;;;4998951;28;20060;-84
2021/09/19 02:13:36;;;;;;;4.88;4.47;;;12.90;99.90;;;;;;4999314;28;20076;-85
2021/09/19 02:16:04;;;;;;;5.68;4.88;;;12.90;99.90;;;;;;4998880;28;20050;-85
2021/09/19 02:18:32;;;;;;;7.35;4.97;;;12.90;99.90;;;;;;4999160;28;20046;-85
2021/09/19 02:20:59;;;;;;;9.20;4.90;;;12.80;99.90;;;;;;5016470;28;20088;-85
2021/09/19 02:23:26;;;;;;;5.18;4.75;;;12.80;99.90;;;;;;5016003;28;20050;-84
2021/09/19 02:25:53;;;;;;;7.45;4.63;;;12.80;99.90;;;;;;4998910;28;20057;-85
2021/09/19 02:28:21;;;;;;;5.53;4.57;;;12.80;99.90;;;;;;4999045;28;20133;-85
2021/09/19 02:30:49;;;;;;;5.03;4.63;;;12.80;99.90;;;;;;4998783;28;20050;-84
2021/09/19 02:33:16;;;;;;;4.75;4.35;;;12.90;99.90;;;;;;4998602;28;20082;-85
2021/09/19 02:35:43;;;;;;;5.18;4.78;;;12.90;99.90;;;;;;4998563;28;20041;-84
2021/09/19 02:38:10;;;;;;;6.10;4.85;;;12.90;99.90;;;;;;5015794;28;20052;-85
2021/09/19 02:40:37;;;;;;;5.18;4.55;;;13.00;99.90;;;;;;5015885;28;20052;-85
2021/09/19 02:43:04;;;;;;;5.85;5.32;;;13.00;99.90;;;;;;4998442;28;20052;-84
2021/09/19 02:45:31;;;;;;;6.00;5.25;;;12.80;99.90;;;;;;4998648;28;20056;-85
2021/09/19 02:47:58;;;;;;;5.28;4.80;;;12.90;99.90;;;;;;4998700;28;20054;-85
2021/09/19 02:50:25;;;;;;;7.75;5.70;;;12.90;99.90;;;;;;4998367;28;20042;-85
2021/09/19 02:52:52;;;;;;;6.03;5.45;;;12.80;99.90;;;;;;5015344;28;20062;-84
2021/09/19 02:55:20;;;;;;;5.72;5.22;;;12.80;99.90;;;;;;4998351;28;20053;-85
2021/09/19 02:57:47;;;;;;;6.43;5.93;;;12.80;99.90;;;;;;5015936;28;20050;-85
2021/09/19 03:00:17;;;;;;;9.88;5.38;;;12.70;99.90;;;;;;5023629;28;20044;-85
2021/09/19 03:02:45;;;;;;;5.90;5.03;;;12.70;99.90;;;;;;5011357;28;20128;-85
2021/09/19 03:05:13;;;;;;;5.78;5.28;;;12.70;99.90;;;;;;4998341;28;20453;-85
2021/09/19 03:07:40;;;;;;;8.43;4.82;;;12.70;99.90;;;;;;4998017;28;20133;-85
2021/09/19 03:10:08;;;;;;;8.85;5.00;;;12.70;99.90;;;;;;4998291;28;20414;-85
2021/09/19 03:12:35;;;;;;;5.05;4.65;;;12.70;99.90;;;;;;5015402;28;20471;-84
2021/09/19 03:15:03;;;;;;;8.02;5.13;;;12.70;99.90;;;;;;4997942;28;20092;-84
2021/09/19 03:17:30;;;;;;;4.80;4.40;;;12.70;99.90;;;;;;4997885;28;20049;-85
2021/09/19 03:19:57;;;;;;;4.78;4.10;;;12.80;99.90;;;;;;4997951;28;20457;-84
2021/09/19 03:22:24;;;;;;;6.05;4.55;;;12.80;99.90;;;;;;4998019;28;20056;-85
2021/09/19 03:24:51;;;;;;;5.22;4.82;;;12.80;99.90;;;;;;4997793;28;20084;-84
2021/09/19 03:27:18;;;;;;;4.85;4.45;;;12.80;99.90;;;;;;5014973;28;20050;-84
2021/09/19 03:29:45;;;;;;;4.50;4.10;;;12.70;99.90;;;;;;4998111;28;20053;-85
2021/09/19 03:32:11;;;;;;;5.93;4.07;;;12.80;99.90;;;;;;4997811;28;20073;-85
2021/09/19 03:34:38;;;;;;;5.07;4.57;;;12.80;99.90;;;;;;4997788;28;20057;-85
2021/09/19 03:37:05;;;;;;;5.03;4.60;;;12.80;99.90;;;;;;4997682;28;20046;-85
2021/09/19 03:39:32;;;;;;;4.80;4.40;;;12.80;99.90;;;;;;4997631;28;20049;-85
2021/09/19 03:41:59;;;;;;;4.57;4.18;;;12.90;99.90;;;;;;4997816;28;20056;-85
2021/09/19 03:44:26;;;;;;;6.05;4.13;;;12.80;99.90;;;;;;4997314;28;20483;-85
2021/09/19 03:46:52;;;;;;;4.10;3.80;;;12.80;99.90;;;;;;4997288;28;20048;-85
2021/09/19 03:49:19;;;;;;;7.20;4.13;;;12.80;99.90;;;;;;5014642;28;20054;-84
2021/09/19 03:51:46;;;;;;;6.22;4.38;;;12.70;99.90;;;;;;4997475;28;20050;-85
2021/09/19 03:54:13;;;;;;;6.97;5.00;;;12.70;99.90;;;;;;4997681;28;20056;-85
2021/09/19 03:56:39;;;;;;;7.68;5.10;;;12.60;99.90;;;;;;4997281;28;20052;-85
2021/09/19 03:59:06;;;;;;;5.25;4.85;;;12.60;99.90;;;;;;4997313;28;20046;-85
2021/09/19 04:01:33;;;;;;;8.02;5.25;;;12.50;99.90;;;;;;5014524;28;20052;-85
2021/09/19 04:04:01;;;;;;;5.95;5.35;;;12.50;99.90;;;;;;5013995;28;20081;-85
2021/09/19 04:06:28;;;;;;;6.03;5.40;;;12.50;99.90;;;;;;5014428;28;20054;-85
2021/09/19 04:08:54;;;;;;;7.45;5.07;;;12.40;99.90;;;;;;4996831;28;20057;-85
2021/09/19 04:11:21;;;;;;;5.65;5.15;;;12.50;99.90;;;;;;5014187;28;20050;-85
2021/09/19 04:13:48;;;;;;;7.32;6.60;;;12.50;99.90;;;;;;5014441;28;20141;-85
2021/09/19 04:16:15;;;;;;;8.00;7.20;;;12.40;99.90;;;;;;4996899;28;20136;-85
2021/09/19 04:18:42;;;;;;;8.23;7.00;;;12.30;99.90;;;;;;4998563;28;20053;-85
2021/09/19 04:21:08;;;;;;;6.60;6.00;;;12.30;99.90;;;;;;5033125;28;20085;-85
2021/09/19 04:23:35;;;;;;;8.55;6.82;;;12.30;99.90;;;;;;4997919;28;20056;-85
2021/09/19 04:26:02;;;;;;;8.23;6.90;;;12.30;99.90;;;;;;5014240;28;20077;-86
2021/09/19 04:28:29;;;;;;;7.55;6.78;;;12.30;99.90;;;;;;5014228;28;20125;-85
2021/09/19 04:30:56;;;;;;;7.45;6.70;;;12.30;99.90;;;;;;5014006;28;20046;-85
2021/09/19 04:33:23;;;;;;;13.25;7.05;;;12.30;99.90;;;;;;4996900;28;20072;-85
2021/09/19 04:35:50;;;;;;;9.73;7.85;;;12.30;99.90;;;;;;5013982;28;20050;-85
2021/09/19 04:38:17;;;;;;;10.40;9.30;;;12.20;99.90;;;;;;4996871;28;20073;-86
2021/09/19 04:40:43;;;;;;;9.60;8.68;;;12.20;99.90;;;;;;4996824;28;20060;-86
2021/09/19 04:43:12;;;;;;;9.48;8.38;;;12.30;99.90;;;;;;5014047;28;20050;-86
2021/09/19 04:45:40;;;;;;;11.02;9.00;;;12.20;99.90;;;;;;4996470;28;20054;-86
2021/09/19 04:48:07;;;;;;;10.10;9.15;;;12.20;99.90;;;;;;4996795;28;20045;-86
2021/09/19 04:50:34;;;;;;;11.00;9.90;;;12.20;99.90;;;;;;4996773;28;20049;-86
2021/09/19 04:53:01;;;;;;;11.75;10.55;;;12.20;99.90;;;;;;5013856;28;20425;-86
2021/09/19 04:55:27;;;;;;;13.27;10.35;;;12.20;99.90;;;;;;4996584;28;20133;-86
2021/09/19 04:57:54;;;;;;;14.52;12.02;;;12.10;99.90;;;;;;4996790;28;20482;-86
2021/09/19 05:00:21;;;;;;;15.77;12.10;;;12.10;99.90;;;;;;5013740;28;20056;-86
2021/09/19 05:02:48;;;;;;;15.70;12.35;;;12.10;99.90;;;;;;5013692;28;20042;-86
2021/09/19 05:05:15;;;;;;;12.88;11.50;;;12.00;99.90;;;;;;5013463;28;20081;-86
2021/09/19 05:07:42;;;;;;;16.10;11.52;;;12.00;99.90;;;;;;4996450;28;20498;-86
2021/09/19 05:10:09;;;;;;;15.43;13.25;;;12.00;99.90;;;;;;5013596;28;20060;-86
2021/09/19 05:12:36;;;;;;;11.77;10.40;;;12.00;99.90;;;;;;5013737;28;20406;-85
2021/09/19 05:15:03;;;;;;;12.65;11.05;;;12.00;99.90;;;;;;4995752;28;20058;-85
2021/09/19 05:17:30;;;;;;;18.98;14.77;;;12.00;99.90;;;;;;4995851;28;20046;-84
2021/09/19 05:19:57;;;;;;;24.13;21.23;;;12.10;99.90;;;;;;4996369;28;20053;-86
2021/09/19 05:22:24;;;;;;;16.48;13.68;;;12.00;99.90;;;;;;4995994;28;20416;-87
2021/09/19 05:24:50;;;;;;;14.40;11.57;;;12.00;99.90;;;;;;4996241;28;20054;-86
2021/09/19 05:27:17;;;;;;;20.92;17.00;;;12.00;99.90;;;;;;4995884;28;20053;-86
2021/09/19 05:29:44;;;;;;;13.65;11.52;;;12.10;99.90;;;;;;5013460;28;20058;-86
2021/09/19 05:32:11;;;;;;;13.10;10.80;;;12.10;99.90;;;;;;4996135;28;20058;-86
2021/09/19 05:34:38;;;;;;;14.52;10.25;;;12.00;99.90;;;;;;5005885;28;20121;-85
2021/09/19 05:37:06;;;;;;;16.10;13.60;;;12.10;99.90;;;;;;5016171;28;20053;-85
2021/09/19 05:39:33;;;;;;;12.73;9.88;;;12.00;99.90;;;;;;5064109;28;20029;-86
2021/09/19 05:42:00;;;;;;;14.40;11.35;;;12.00;99.90;;;;;;5009141;28;20089;-86
2021/09/19 05:44:27;;;;;;;10.68;9.60;;;12.00;99.90;;;;;;5036277;28;20049;-86
2021/09/19 05:46:54;;;;;;;10.73;9.68;;;12.10;99.90;;;;;;5026552;28;20042;-85
2021/09/19 05:49:21;;;;;;;10.65;8.40;;;12.10;99.90;;;;;;5004116;28;20050;-85
2021/09/19 05:51:47;;;;;;;10.45;9.40;;;12.10;99.90;;;;;;5038276;28;20052;-85
2021/09/19 05:54:14;;;;;;;11.50;10.40;;;12.10;99.90;;;;;;5003566;28;20053;-85
2021/09/19 05:56:41;;;;;;;9.88;8.88;;;12.10;99.90;;;;;;5006297;28;20100;-85
2021/09/19 05:59:08;;;;;;;8.32;7.40;;;12.20;99.90;;;;;;5021479;28;20056;-85
2021/09/19 06:01:35;;;;;;;8.52;7.57;;;12.30;99.90;;;;;;5006935;28;20050;-85
2021/09/19 06:04:02;;;;;;;8.48;7.70;;;12.30;99.90;;;;;;5035154;28;20128;-86
2021/09/19 06:06:28;;;;;;;8.93;8.13;;;12.30;99.90;;;;;;5022630;28;20054;-85
2021/09/19 06:08:55;;;;;;;10.43;7.35;;;12.30;99.90;;;;;;5000484;28;20056;-85
2021/09/19 06:11:22;;;;;;;7.03;6.43;;;12.30;99.90;;;;;;5002857;28;20451;-85
2021/09/19 06:13:49;;;;;;;8.25;6.75;;;12.30;99.90;;;;;;5032745;28;20049;-86
2021/09/19 06:16:16;;;;;;;8.13;6.97;;;12.30;99.90;;;;;;5015191;28;20064;-85
2021/09/19 06:18:42;;;;;;;9.10;6.95;;;12.30;99.90;;;;;;5015520;28;20056;-85
2021/09/19 06:21:09;;;;;;;8.85;7.95;;;12.30;99.90;;;;;;5032313;28;20045;-85
2021/09/19 06:23:37;;;;;;;8.93;7.10;;;12.30;99.90;;;;;;5047988;28;20049;-85
2021/09/19 06:26:03;;;;;;;9.48;7.43;;;12.30;99.90;;;;;;5047769;28;20053;-85
2021/09/19 06:28:30;;;;;;;9.65;8.02;;;12.30;99.90;;;;;;5018330;28;20130;-85
2021/09/19 06:30:58;;;;;;;10.02;7.50;;;12.30;99.90;;;;;;5035730;28;20085;-85
2021/09/19 06:33:29;;;;;;;6.35;5.75;;;12.30;99.90;;;;;;5016931;28;20140;-85
2021/09/19 06:35:56;;;;;;;8.85;6.65;;;12.30;99.90;;;;;;5034702;28;20057;-85
2021/09/19 06:38:23;;;;;;;7.05;6.45;;;12.40;99.90;;;;;;5017433;28;20067;-85
2021/09/19 06:40:50;;;;;;;7.00;5.93;;;12.50;99.90;;;;;;5017760;28;20106;-85
2021/09/19 06:43:16;;;;;;;6.43;5.82;;;12.50;99.90;;;;;;5017658;28;20375;-85
2021/09/19 06:45:43;;;;;;;6.90;6.10;;;12.50;99.90;;;;;;5017262;28;20490;-85
2021/09/19 06:48:10;;;;;;;9.23;5.82;;;12.50;99.90;;;;;;5050392;28;20057;-85
2021/09/19 06:50:37;;;;;;;6.90;6.22;;;12.50;99.90;;;;;;5017436;28;20409;-85
2021/09/19 06:53:04;;;;;;;7.68;5.72;;;12.60;99.90;;;;;;5034703;28;20081;-85
2021/09/19 06:55:30;;;;;;;6.25;5.65;;;12.60;99.90;;;;;;5034776;28;20055;-85
2021/09/19 06:57:57;;;;;;;5.88;5.28;;;12.60;99.90;;;;;;5043158;28;20050;-85
2021/09/19 07:00:25;;;;;;;9.15;5.45;;;12.50;99.90;;;;;;5029577;28;20105;-85
2021/09/19 07:02:52;;;;;;;6.38;5.55;;;12.50;99.90;;;;;;5017819;28;20437;-85
2021/09/19 07:05:20;;;;;;;6.90;6.18;;;12.50;99.90;;;;;;5034562;28;20092;-85
2021/09/19 07:07:47;;;;;;;6.60;5.82;;;12.50;99.90;;;;;;5017118;28;20099;-86
2021/09/19 07:10:15;;;;;;;6.82;5.93;;;12.50;99.90;;;;;;5034665;28;20060;-85
2021/09/19 07:12:42;;;;;;;6.35;5.85;;;12.50;99.90;;;;;;5033531;28;20088;-84
2021/09/19 07:15:09;;;;;;;9.40;5.78;;;12.50;99.90;;;;;;5017129;28;20051;-86
2021/09/19 07:17:37;;;;;;;10.65;6.13;;;12.60;99.90;;;;;;5017877;28;20092;-86
2021/09/19 07:20:05;;;;;;;6.45;5.38;;;12.60;99.90;;;;;;5017592;28;20137;-85
2021/09/19 07:22:31;;;;;;;6.88;6.18;;;12.60;99.90;;;;;;5034810;28;20049;-85
2021/09/19 07:24:59;;;;;;;9.05;5.93;;;12.60;99.90;;;;;;5050013;28;20041;-86
2021/09/19 07:27:26;;;;;;;6.68;6.07;;;12.60;99.90;;;;;;5017293;28;20136;-85
2021/09/19 07:29:53;;;;;;;7.15;6.40;;;12.60;99.90;;;;;;5017842;28;20045;-85
2021/09/19 07:32:20;;;;;;;9.60;6.80;;;12.60;99.90;;;;;;5017367;28;20461;-85
2021/09/19 07:34:47;;;;;;;7.90;6.45;;;12.60;99.90;;;;;;5034908;28;20085;-85
2021/09/19 07:37:14;;;;;;;8.38;6.63;;;12.60;99.90;;;;;;5017057;28;20048;-85
2021/09/19 07:39:41;;;;;;;12.13;5.97;;;12.60;99.90;;;;;;5016612;28;20053;-85
2021/09/19 07:42:09;;;;;;;8.77;6.70;;;12.80;99.90;;;;;;5017266;28;20042;-84
2021/09/19 07:44:38;;;;;;;6.47;5.97;;;12.80;99.90;;;;;;5017082;28;20045;-85
2021/09/19 07:47:06;;;;;;;6.10;5.60;;;12.90;99.90;;;;;;5017009;28;20080;-85
2021/09/19 07:49:36;;;;;;;8.05;6.45;;;13.00;99.90;;;;;;5017044;28;20077;-86
2021/09/19 07:52:05;;;;;;;7.68;6.18;;;12.90;99.90;;;;;;5017514;28;20053;-85
2021/09/19 07:54:33;;;;;;;7.10;6.40;;;12.90;99.90;;;;;;5034335;28;20128;-85
2021/09/19 07:57:00;;;;;;;7.95;7.13;;;12.80;99.90;;;;;;5016514;28;20139;-85
2021/09/19 07:59:27;;;;;;;6.93;6.32;;;12.80;99.90;;;;;;5013398;28;20505;-85
2021/09/19 08:01:54;;;;;;;8.35;6.78;;;12.70;99.90;;;;;;5024674;28;20042;-86
2021/09/19 08:04:21;;;;;;;7.88;7.03;;;12.70;99.90;;;;;;5000049;28;20149;-85
2021/09/19 08:06:47;;;;;;;9.02;7.57;;;12.60;99.90;;;;;;5006336;28;20045;-86
2021/09/19 08:09:14;;;;;;;7.22;6.63;;;12.50;99.90;;;;;;5006754;28;20046;-85
2021/09/19 08:11:41;;;;;;;7.93;6.72;;;12.50;99.90;;;;;;5043770;28;20136;-85
2021/09/19 08:14:08;;;;;;;7.40;6.63;;;12.50;99.90;;;;;;5027838;28;20470;-84
2021/09/19 08:16:38;;;;;;;6.65;5.93;;;12.70;99.90;;;;;;5024745;28;20052;-85
2021/09/19 08:19:08;;;;;;;8.75;6.20;;;12.80;99.90;;;;;;5023218;28;20045;-85
2021/09/19 08:21:36;;;;;;;6.22;5.72;;;13.00;99.90;;;;;;5008860;28;20045;-85
2021/09/19 08:24:10;;;;;;;6.60;5.90;;;13.00;99.90;;;;;;5006966;28;20050;-87
2021/09/19 08:26:38;;;;;;;6.85;6.03;;;13.10;99.90;;;;;;5007372;28;20080;-86
2021/09/19 08:29:06;;;;;;;7.50;5.60;;;13.30;99.90;;;;;;5004409;28;20050;-85
2021/09/19 08:31:33;;;;;;;6.18;5.60;;;13.20;99.90;;;;;;4999257;28;20050;-85
2021/09/19 08:34:00;;;;;;;8.50;5.68;;;13.30;99.90;;;;;;4996810;28;20056;-85
2021/09/19 08:36:27;;;;;;;8.20;5.70;;;13.40;99.90;;;;;;4996305;28;20046;-86
2021/09/19 08:38:54;;;;;;;6.28;5.45;;;13.30;99.90;;;;;;5014006;28;20049;-85
2021/09/19 08:41:21;;;;;;;7.57;5.80;;;13.30;99.90;;;;;;4996770;28;20046;-86
2021/09/19 08:43:49;;;;;;;6.82;5.55;;;13.20;99.90;;;;;;4996762;28;20072;-85
2021/09/19 08:46:17;;;;;;;5.78;5.28;;;13.20;99.90;;;;;;4996504;28;20054;-86
2021/09/19 08:48:44;;;;;;;5.68;5.18;;;13.30;99.90;;;;;;5013905;28;20063;-85
2021/09/19 08:51:11;;;;;;;6.28;5.35;;;13.30;99.90;;;;;;5013309;28;20050;-85
2021/09/19 08:53:38;;;;;;;7.38;5.32;;;13.30;99.90;;;;;;4996478;28;20054;-86
2021/09/19 08:56:06;;;;;;;6.00;5.40;;;13.40;99.90;;;;;;4996186;28;20046;-86
2021/09/19 08:58:33;;;;;;;10.85;5.43;;;13.70;99.90;;;;;;4996315;28;20049;-85
2021/09/19 09:01:01;;;;;;;5.72;5.25;;;14.00;99.90;;;;;;5013678;28;20041;-85
2021/09/19 09:03:30;;;;;;;4.90;4.47;;;14.20;99.90;;;;;;4996201;28;20046;-86
2021/09/19 09:06:05;;;;;;;5.38;4.80;;;14.40;99.90;;;;;;5013277;28;20046;-85
2021/09/19 09:08:33;;;;;;;6.22;4.53;;;14.40;99.90;;;;;;4996160;28;20061;-85
2021/09/19 09:11:05;;;;;;;5.60;5.10;;;14.40;99.90;;;;;;4996102;28;20050;-85
2021/09/19 09:13:36;;;;;;;10.93;5.03;;;14.40;99.90;;;;;;4996290;28;20510;-85
2021/09/19 09:16:07;;;;;;;7.07;6.38;;;14.40;99.90;;;;;;4996054;28;20085;-84
2021/09/19 09:18:37;;;;;;;11.88;8.52;;;14.60;99.90;;;;;;4996173;28;20081;-85
2021/09/19 09:21:05;;;;;;;43.72;24.00;;;14.40;99.90;;;;;;4995909;28;20060;-86
2021/09/19 09:23:32;;;;;;;19.85;11.50;;;14.20;99.90;;;;;;4996346;28;20056;-86
2021/09/19 09:26:13;;;;;;;12.73;7.50;;;14.00;99.90;;;;;;5013140;28;20061;-85
2021/09/19 09:29:08;;;;;;;37.15;22.30;;;14.00;99.90;;;;;;4995883;28;20050;-87
2021/09/19 09:31:46;;;;;;;17.15;12.25;;;13.90;99.90;;;;;;4995743;28;20089;-84
2021/09/19 09:34:23;;;;;;;36.08;26.40;;;13.80;99.90;;;;;;5013214;28;20046;-84
2021/09/19 09:36:51;;;;;;;24.88;20.02;;;13.70;99.90;;;;;;4998435;28;20136;-85
2021/09/19 09:39:27;;;;;;;23.35;20.40;;;13.60;99.90;;;;;;5013046;28;20073;-86
2021/09/19 09:41:57;;;;;;;51.00;43.75;;;13.40;99.90;;;;;;4996300;28;20089;-87
2021/09/19 09:44:35;;;;;;;8.45;7.53;;;13.40;99.90;;;;;;4995953;28;20497;-84
2021/09/19 09:47:08;;;;;;;14.98;13.00;;;13.40;99.90;;;;;;4995784;28;20061;-86
2021/09/19 09:49:39;;;;;;;10.35;9.32;;;13.40;99.90;;;;;;4996010;28;20050;-85
2021/09/19 09:52:17;;;;;;;9.57;4.93;;;13.60;99.90;;;;;;4995833;28;20049;-86
2021/09/19 09:55:05;;;;;;;5.65;5.05;;;13.70;99.90;;;;;;4995858;28;20065;-85
2021/09/19 09:57:35;;;;;;;6.28;5.43;;;13.70;99.90;;;;;;4995847;28;20052;-85
2021/09/19 10:00:09;;;;;;;5.47;4.75;;;13.80;99.90;;;;;;4995882;28;20177;-85
2021/09/19 10:02:38;;;;;;;5.93;4.40;;;13.90;99.90;;;;;;4997817;28;20046;-85
2021/09/19 10:05:07;;;;;;;5.68;3.97;;;14.20;99.90;;;;;;5016739;28;20508;-85
2021/09/19 10:07:39;;;;;;;4.82;4.43;;;14.30;99.90;;;;;;4999403;28;20058;-86
2021/09/19 10:10:08;;;;;;;5.93;4.20;;;14.60;99.90;;;;;;4999338;28;20049;-86
2021/09/19 10:12:35;;;;;;;4.25;3.95;;;14.60;99.90;;;;;;4999552;28;20464;-84
2021/09/19 10:15:05;;;;;;;7.43;4.28;;;14.60;99.90;;;;;;4999155;28;20133;-86
2021/09/19 10:17:33;;;;;;;4.90;4.50;;;14.40;99.90;;;;;;4999433;28;20064;-86
2021/09/19 10:20:11;;;;;;;5.13;4.50;;;14.20;99.90;;;;;;4999384;28;20050;-85
2021/09/19 10:23:00;;;;;;;5.90;3.80;;;14.30;99.90;;;;;;4999497;28;20085;-86
2021/09/19 10:25:29;;;;;;;5.80;3.72;;;14.30;99.90;;;;;;4999011;28;20461;-86
2021/09/19 10:28:20;;;;;;;4.63;4.30;;;14.20;99.90;;;;;;4999448;28;20145;-86
2021/09/19 10:31:09;;;;;;;6.45;4.38;;;14.30;99.90;;;;;;5016297;28;20054;-85
2021/09/19 10:33:40;;;;;;;6.53;5.00;;;14.40;99.90;;;;;;4999362;28;20053;-86
2021/09/19 10:36:23;;;;;;;9.60;5.40;;;14.40;99.90;;;;;;4998701;28;20053;-86
2021/09/19 10:38:50;;;;;;;6.80;4.47;;;14.60;99.90;;;;;;4998775;28;20116;-85
2021/09/19 10:41:23;;;;;;;5.88;5.25;;;14.50;99.90;;;;;;4998426;28;20566;-87
2021/09/19 10:43:53;;;;;;;9.18;5.20;;;14.40;99.90;;;;;;4998897;28;20136;-86
2021/09/19 10:46:35;;;;;;;5.70;5.05;;;14.30;99.90;;;;;;4998814;28;20057;-86
2021/09/19 10:49:17;;;;;;;5.60;5.10;;;14.30;99.90;;;;;;4998801;28;20529;-86
2021/09/19 10:52:02;;;;;;;5.22;4.82;;;14.20;99.90;;;;;;4998437;28;20136;-86
2021/09/19 10:54:46;;;;;;;5.65;5.05;;;14.20;99.90;;;;;;4998754;28;20406;-86
2021/09/19 10:57:29;;;;;;;5.18;4.68;;;14.10;99.90;;;;;;5008164;28;20050;-85
2021/09/19 11:00:08;;;;;;;5.00;4.25;;;14.10;99.90;;;;;;5006705;28;20137;-86
2021/09/19 11:02:36;;;;;;;7.65;4.88;;;14.10;99.90;;;;;;4998316;28;20053;-86
2021/09/19 11:05:26;;;;;;;4.75;4.35;;;14.10;99.90;;;;;;4998432;28;20050;-85
2021/09/19 11:08:08;;;;;;;7.78;4.55;;;14.10;99.90;;;;;;4998353;28;20058;-86
2021/09/19 11:10:44;;;;;;;5.03;4.25;;;14.30;99.90;;;;;;5015761;28;20096;-86
2021/09/19 11:13:41;;;;;;;4.78;4.38;;;14.20;99.90;;;;;;5015383;28;20069;-85
2021/09/19 11:16:30;;;;;;;6.10;4.80;;;14.00;99.90;;;;;;4998035;28;20064;-85
2021/09/19 11:19:00;;;;;;;6.03;4.50;;;13.90;99.90;;;;;;4998224;28;20541;-86
2021/09/19 11:21:27;;;;;;;5.90;4.72;;;14.00;99.90;;;;;;4998229;28;20132;-87
2021/09/19 11:23:58;;;;;;;5.30;4.22;;;14.20;99.90;;;;;;4998103;28;20046;-85
2021/09/19 11:26:30;;;;;;;5.10;4.60;;;14.20;99.90;;;;;;4997935;28;20050;-86
2021/09/19 11:28:59;;;;;;;5.55;4.90;;;14.20;99.90;;;;;;5021847;28;20133;-85
2021/09/19 11:31:27;;;;;;;10.05;5.25;;;14.40;99.90;;;;;;5015025;28;20598;-85
2021/09/19 11:33:54;;;;;;;4.65;4.25;;;14.60;99.90;;;;;;5014790;28;20620;-86
2021/09/19 11:36:22;;;;;;;4.72;4.32;;;14.50;99.90;;;;;;4997854;28;20410;-85
2021/09/19 11:38:52;;;;;;;6.40;4.10;;;14.50;99.90;;;;;;4997916;28;20049;-85
2021/09/19 11:41:20;;;;;;;4.82;4.43;;;14.60;99.90;;;;;;4997774;28;20077;-86
2021/09/19 11:43:49;;;;;;;4.50;4.10;;;14.70;99.90;;;;;;4998014;28;20049;-85
2021/09/19 11:46:18;;;;;;;4.57;4.28;;;14.70;99.90;;;;;;4997509;28;20533;-85
2021/09/19 11:48:46;;;;;;;4.47;4.07;;;14.90;99.90;;;;;;5014600;28;20483;-86
2021/09/19 11:51:16;;;;;;;4.03;3.83;;;15.00;99.90;;;;;;5022600;28;20050;-86
2021/09/19 11:53:44;;;;;;;4.43;4.03;;;14.90;99.90;;;;;;4999911;28;20075;-85
2021/09/19 11:56:11;;;;;;;4.35;4.03;;;15.10;99.90;;;;;;4997275;28;20057;-86
2021/09/19 11:58:37;;;;;;;7.03;3.90;;;15.10;99.90;;;;;;4997386;28;20052;-86
2021/09/19 12:01:05;;;;;;;7.40;4.72;;;14.70;99.90;;;;;;4997345;28;20086;-86
2021/09/19 12:03:33;;;;;;;5.55;4.20;;;14.60;99.90;;;;;;4997362;28;20067;-85
2021/09/19 12:06:01;;;;;;;4.68;4.28;;;15.00;99.90;;;;;;5014472;28;20045;-86
2021/09/19 12:08:30;;;;;;;4.50;4.13;;;15.20;99.90;;;;;;4996922;28;20087;-85
2021/09/19 12:10:57;;;;;;;4.90;4.47;;;15.50;99.90;;;;;;4998614;28;20517;-86
2021/09/19 12:13:27;;;;;;;9.30;5.15;;;15.50;99.90;;;;;;5014529;28;20054;-86
2021/09/19 12:16:10;;;;;;;4.90;4.50;;;15.60;99.90;;;;;;5004324;28;20053;-86
2021/09/19 12:18:41;;;;;;;4.82;4.43;;;15.60;99.90;;;;;;5014558;28;20125;-86
2021/09/19 12:21:17;;;;;;;4.93;4.47;;;15.70;99.90;;;;;;5023426;28;20059;-85
2021/09/19 12:23:47;;;;;;;5.82;4.25;;;15.60;99.90;;;;;;5022890;28;20057;-84
2021/09/19 12:26:22;;;;;;;4.63;4.28;;;15.60;99.90;;;;;;5007537;28;20053;-85
2021/09/19 12:28:54;;;;;;;5.10;4.68;;;15.50;99.90;;;;;;5001727;28;20049;-84
2021/09/19 12:31:37;;;;;;;5.43;5.03;;;15.70;99.90;;;;;;5011312;28;20050;-85
2021/09/19 12:34:09;;;;;;;5.37;4.60;;;15.70;99.90;;;;;;4996641;28;20088;-85
2021/09/19 12:36:46;;;;;;;5.28;4.78;;;15.70;99.90;;;;;;4996689;28;20309;-85
2021/09/19 12:39:25;;;;;;;10.07;5.28;;;15.90;99.90;;;;;;4996499;28;20056;-84
2021/09/19 12:41:58;;;;;;;5.43;4.93;;;15.90;99.90;;;;;;4996724;28;20057;-86
2021/09/19 12:44:29;;;;;;;5.93;5.43;;;15.90;99.90;;;;;;4996407;28;20052;-85
2021/09/19 12:46:59;;;;;;;5.85;5.32;;;16.00;99.90;;;;;;5012693;28;20198;-85
2021/09/19 12:49:29;;;;;;;5.72;5.30;;;16.20;99.90;;;;;;4996184;28;20046;-85
2021/09/19 12:52:09;;;;;;;5.10;4.78;;;16.40;99.90;;;;;;4996453;28;20054;-86